CheckWX is a tool to help pilots better visualize weather data.  It is not intended as a substitute for an official pre-flight weather briefing.

05:31:39 UTC

4M9 METAR
Corning Municipal Airport
Corning, Arkansas, USA
Current

17 mins ago

K4M9 240515Z AUTO 21014G19KT 10SM CLR 12/05 A2964 RMK AO2 PWINO
Observed
Feb-24 @ 05:15 UTC
Wind
  • 210° at 14 KTS
  • Gusting to 19 KTS
Visibility
10 SM
Flight Rules
VFR
Cloud Levels
  • Clear skies
Temperature
12°C / 54°F
Dewpoint
C / 41°F
Humidity
63%
Altimeter
29.64" Hg
Pressure
1003.72 hPa
Previous

37 mins ago

K4M9 240455Z AUTO 21013G18KT 10SM FEW050 12/05 A2965 RMK AO2 PWINO
Observed
Feb-24 @ 04:55 UTC
Wind
  • 210° at 13 KTS
  • Gusting to 18 KTS
Visibility
10 SM
Flight Rules
VFR
Cloud Levels
  • Few at 5,000' AGL
Temperature
12°C / 54°F
Dewpoint
C / 41°F
Humidity
63%
Altimeter
29.65" Hg
Pressure
1004.02 hPa
Previous

57 mins ago

K4M9 240435Z AUTO 21012KT 10SM CLR 12/06 A2965 RMK AO2 PWINO
Observed
Feb-24 @ 04:35 UTC
Wind
  • 210° at 12 KTS
Visibility
10 SM
Flight Rules
VFR
Cloud Levels
  • Clear skies
Temperature
12°C / 54°F
Dewpoint
C / 43°F
Humidity
67%
Altimeter
29.65" Hg
Pressure
1004.02 hPa